• Join FlightAware (Why Join?)
  • Login
  • US Flag 
10:30AM EDT


 

Airport Tracker/Info


-or-


 

Live Flight TrackerFlight Track Log ✈ DAL1755 ✈ 03-May-2013 ✈ KATL - KLAX

Flight Track Log - Related Links

Times and Time Zones

All times are in EDT time to prevent confusion due to time zone crossing. See the DAL1755 flight status page for this flight to view local times or setup timezone preferences in your user account.

Time Position Orientation Groundspeed Altitude Reporting Facility
EDT Latitude Longitude Course Direction KTS MPH feet Rate Location/Type
12:22PM 33.6500 -84.3833 252° West 174 200 2,700  Level Atlanta TRACON
12:23PM 33.6667 -84.3167 73° East 227 261 4,500 2,520 Climbing Atlanta TRACON
12:24PM 33.8001 -84.3825 270° West  Level FlightAware Approximate
12:24PM 33.7167 -84.2833 29° Northeast 289 333 7,500  Level Atlanta TRACON
12:25PM 33.8000 -84.5264 270° West  Level FlightAware Approximate
12:25PM 33.8106 -84.3914 316° Northwest 269 310 11,300  Level Atlanta Center
12:26PM 33.7860 -84.6676 252° West  Level FlightAware Approximate
12:26PM 33.8081 -84.5014 268° West 312 359 13,700  Level Atlanta Center
12:27PM 33.7483 -84.8042 252° West  Level FlightAware Approximate
12:27PM 33.8033 -84.6239 267° West 347 399 15,800  Level Atlanta Center
12:28PM 33.7714 -84.7561 254° West 389 448 18,000 2,040 Climbing Atlanta Center
12:29PM 33.7328 -84.8956 252° West 394 453 19,900 1,920 Climbing Atlanta Center
12:30PM 33.7006 -85.0275 254° West 412 474 21,900 1,800 Climbing Atlanta Center
12:31PM 33.6661 -85.1619 253° West 422 486 23,500 1,560 Climbing Atlanta Center
12:32PM 33.6478 -85.3064 261° West 428 493 25,100 1,380 Climbing Atlanta Center
12:33PM 33.6525 -85.4564 272° West 438 504 26,300 1,200 Climbing Atlanta Center
12:34PM 33.6550 -85.6061 271° West 453 521 27,600 840 Climbing Atlanta Center
12:35PM 33.6589 -85.7658 272° West 470 541 28,000 180 Climbing Atlanta Center
12:36PM 33.6614 -85.8958 271° West 464 534 28,000  Level Atlanta Center
12:37PM 33.6608 -86.0506 270° West 459 528 28,000 720 Level Atlanta Center
12:38PM 33.6625 -86.2053 271° West 459 528 29,500 1,320 Climbing Atlanta Center
12:39PM 33.6639 -86.3550 271° West 459 528 30,700 1,260 Climbing Atlanta Center
12:40PM 33.6650 -86.5097 271° West 459 528 32,100 1,380 Climbing Atlanta Center
12:41PM 33.6683 -86.6597 272° West 459 528 33,500 900 Climbing Atlanta Center
12:42PM 33.6672 -86.8044 270° West 454 522 34,000 120 Climbing Atlanta Center
12:44PM 33.7103 -87.0936 280° West 460 529 34,000  Level Memphis Center
12:45PM 33.7414 -87.2547 283° West 460 529 34,000  Level Memphis Center
12:46PM 33.7744 -87.4008 285° West 460 529 34,000  Level Memphis Center
12:47PM 33.8067 -87.5322 286° West 460 529 34,000  Level Memphis Center
12:48PM 33.8350 -87.6839 283° West 455 524 34,000  Level Memphis Center
12:49PM 33.8675 -87.8456 284° West 455 524 34,000  Level Memphis Center
12:50PM 33.8997 -87.9897 285° West 455 524 34,000  Level Memphis Center
12:51PM 33.9294 -88.1417 283° West 455 524 34,000  Level Memphis Center
12:52PM 33.9572 -88.2936 282° West 466 536 34,000  Level Memphis Center
12:53PM 33.9889 -88.4431 284° West 466 536 34,000  Level Memphis Center
12:54PM 34.0056 -88.5931 278° West 466 536 34,000  Level Memphis Center
12:55PM 34.0222 -88.7431 278° West 461 531 34,000  Level Memphis Center
12:56PM 34.0408 -88.8883 279° West 452 520 34,000  Level Memphis Center
12:57PM 34.0631 -89.0158 282° West 447 514 34,000  Level Memphis Center
12:58PM 34.0875 -89.1658 281° West 447 514 34,000  Level Memphis Center
12:59PM 34.1161 -89.3108 283° West 447 514 34,000  Level Memphis Center
01:00PM 34.1528 -89.4536 287° West 447 514 34,000  Level Memphis Center
01:01PM 34.1933 -89.5989 289° West 459 528 34,000  Level Memphis Center
01:02PM 34.2422 -89.7567 291° West 464 534 34,000  Level Memphis Center
01:03PM 34.2803 -89.9022 288° West 464 534 34,000  Level Memphis Center
01:04PM 34.3058 -90.0528 282° West 458 527 34,000  Level Memphis Center
01:05PM 34.3353 -90.2011 284° West 458 527 34,000  Level Memphis Center
01:06PM 34.3625 -90.3547 282° West 458 527 34,000  Level Memphis Center
01:07PM 34.3897 -90.5056 282° West 463 533 34,000  Level Memphis Center
01:08PM 34.4164 -90.6592 282° West 468 539 34,000  Level Memphis Center
01:09PM 34.4411 -90.7953 282° West 468 539 34,000  Level Memphis Center
01:10PM 34.4678 -90.9492 282° West 468 539 34,000  Level Memphis Center
01:11PM 34.4961 -91.1031 283° West 467 537 34,000  Level Memphis Center
01:12PM 34.5264 -91.2597 283° West 472 543 34,000  Level Memphis Center
01:13PM 34.5503 -91.4061 281° West 465 535 34,000  Level Memphis Center
01:14PM 34.5717 -91.5628 279° West 447 514 34,000  Level Memphis Center
01:15PM 34.5994 -91.7044 283° West 442 509 34,000  Level Memphis Center
01:16PM 34.6192 -91.8233 281° West 419 482 34,000  Level Memphis Center
01:17PM 34.6403 -91.9625 280° West 419 482 34,000  Level Memphis Center
01:18PM 34.6656 -92.1019 282° West 419 482 34,000  Level Memphis Center
01:19PM 34.6989 -92.2492 285° West 432 497 34,000  Level Memphis Center
01:20PM 34.7508 -92.3892 294° West 444 511 34,000  Level Memphis Center
01:21PM 34.8028 -92.5372 293° West 455 524 34,000  Level Memphis Center
01:22PM 34.8522 -92.6878 292° West 468 539 34,000  Level Memphis Center
01:23PM 34.9075 -92.8489 293° West 468 539 34,000  Level Memphis Center
01:24PM 34.9586 -92.9972 293° West 473 544 34,000  Level Memphis Center
01:25PM 35.0078 -93.1408 293° West 478 550 34,000  Level Memphis Center
01:26PM 35.0586 -93.2897 293° West 478 550 34,000  Level Memphis Center
01:27PM 35.1072 -93.4361 292° West 478 550 34,000  Level Memphis Center
01:28PM 35.1578 -93.5825 293° West 478 550 34,000  Level Memphis Center
01:29PM 35.2061 -93.7267 292° West 467 537 34,000  Level Memphis Center
01:30PM 35.2542 -93.8736 292° West 467 537 34,000  Level Memphis Center
01:31PM 35.3019 -94.0181 292° West 462 532 34,000  Level Memphis Center
01:32PM 35.3478 -94.1600 292° West 457 526 34,000  Level Memphis Center
01:33PM 35.3933 -94.3072 291° West 457 526 34,000  Level Memphis Center
01:36PM 35.4656 -94.6558 284° West 458 527 34,000  Level Fort Worth Center
01:37PM 35.4939 -94.8028 283° West 452 520 34,000  Level Fort Worth Center
01:38PM 35.5219 -94.9525 283° West 452 520 34,000  Level Fort Worth Center
01:39PM 35.5497 -95.1022 283° West 452 520 34,000  Level Fort Worth Center
01:40PM 35.5794 -95.2544 284° West 452 520 34,000  Level Fort Worth Center
01:41PM 35.6069 -95.4044 283° West 452 520 34,000  Level Fort Worth Center
01:42PM 35.6364 -95.5544 284° West 447 514 34,000  Level Fort Worth Center
01:42PM 35.6522 -95.6422 283° West 453 521 34,000  Level Kansas City Center
01:43PM 35.6847 -95.8242 282° West 452 520 34,000  Level Kansas City Center
01:44PM 35.7131 -95.9781 283° West 456 525 34,000  Level Kansas City Center
01:45PM 35.7386 -96.1217 282° West 456 525 34,000  Level Kansas City Center
01:46PM 35.7656 -96.2708 283° West 452 520 34,000  Level Kansas City Center
01:47PM 35.7869 -96.4219 270° West 452 520 34,000  Level Kansas City Center
01:48PM 35.7648 -96.4254 270° West  Level FlightAware Approximate
01:49PM 35.7872 -96.6025 270° West 445 512 34,000  Level Kansas City Center
01:50PM 35.7878 -96.7531 270° West 442 509 34,000  Level Kansas City Center
01:51PM 35.7878 -96.9042 270° West 444 511 34,000  Level Kansas City Center
01:52PM 35.7867 -97.0558 270° West 446 513 34,000  Level Kansas City Center
01:52PM 35.7853 -97.1269 269° West 441 507 34,000  Level Fort Worth Center
01:53PM 35.7836 -97.2756 269° West 441 507 34,000  Level Fort Worth Center
01:54PM 35.7836 -97.4136 270° West 441 507 34,000  Level Fort Worth Center
01:55PM 35.7545 -97.4559 270° West  Level FlightAware Approximate
01:55PM 35.7814 -97.5644 269° West 441 507 34,000  Level Fort Worth Center
01:56PM 35.7792 -97.7103 269° West 441 507 34,000  Level Fort Worth Center
01:57PM 35.7786 -97.8586 270° West 441 507 34,000  Level Fort Worth Center
01:58PM 35.7758 -98.0122 269° West 441 507 34,000  Level Fort Worth Center
01:59PM 35.7750 -98.1631 270° West 441 507 34,000  Level Fort Worth Center
02:00PM 35.7700 -98.3089 268° West 441 507 34,000  Level Fort Worth Center
02:01PM 35.7689 -98.4597 270° West 441 507 34,000  Level Fort Worth Center
02:02PM 35.7675 -98.6081 269° West 441 507 34,000  Level Fort Worth Center
02:03PM 35.7639 -98.7564 268° West 441 507 34,000  Level Fort Worth Center
02:04PM 35.7622 -98.9022 269° West 435 501 34,000  Level Fort Worth Center
02:05PM 35.7561 -99.0478 267° West 435 501 34,000  Level Fort Worth Center
02:06PM 35.7542 -99.1961 269° West 435 501 34,000  Level Fort Worth Center
02:07PM 35.7500 -99.3394 268° West 435 501 34,000  Level Fort Worth Center
02:09PM 35.7431 -99.6125 268° West 425 489 34,000  Level Albuquerque Center
02:10PM 35.7383 -99.7553 268° West 422 486 34,000  Level Albuquerque Center
02:11PM 35.7333 -99.8981 268° West 419 482 34,000  Level Albuquerque Center
02:12PM 35.7297 -100.0397 268° West 417 480 34,000  Level Albuquerque Center
02:13PM 35.7244 -100.2103 268° West 417 480 34,000  Level Albuquerque Center
02:14PM 35.7189 -100.3506 267° West 413 475 34,000  Level Albuquerque Center
02:15PM 35.7142 -100.4914 268° West 413 475 34,000  Level Albuquerque Center
02:16PM 35.7103 -100.6339 268° West 417 480 34,000  Level Albuquerque Center
02:17PM 35.7044 -100.7736 267° West 414 476 34,000  Level Albuquerque Center
02:18PM 35.6994 -100.9150 268° West 415 478 34,000  Level Albuquerque Center
02:19PM 35.6928 -101.0825 267° West 412 474 34,000  Level Albuquerque Center
02:20PM 35.6872 -101.2225 267° West 412 474 34,000  Level Albuquerque Center
02:21PM 35.6825 -101.3625 268° West 413 475 34,000  Level Albuquerque Center
02:22PM 35.6756 -101.5019 267° West 413 475 34,000  Level Albuquerque Center
02:23PM 35.6700 -101.6414 267° West 414 476 34,000  Level Albuquerque Center
02:24PM 35.6642 -101.7808 267° West 413 475 34,000  Level Albuquerque Center
02:25PM 35.6561 -101.9481 267° West 414 476 34,000  Level Albuquerque Center
02:26PM 35.6500 -102.0903 267° West 417 480 34,000  Level Albuquerque Center
02:27PM 35.6425 -102.2319 266° West 419 482 34,000  Level Albuquerque Center
02:28PM 35.6364 -102.3747 267° West 421 484 34,000  Level Albuquerque Center
02:29PM 35.6283 -102.5178 266° West 421 484 34,000  Level Albuquerque Center
02:30PM 35.6183 -102.6894 266° West 422 486 34,000  Level Albuquerque Center
02:31PM 35.6119 -102.8339 267° West 425 489 34,000  Level Albuquerque Center
02:33PM 35.6050 -102.9761 267° West 425 489 34,000  Level Albuquerque Center
02:34PM 35.5964 -103.1228 266° West 427 491 34,000  Level Albuquerque Center
02:35PM 35.5861 -103.2697 265° West 428 493 34,000  Level Albuquerque Center
02:36PM 35.5797 -103.4169 267° West 429 494 34,000  Level Albuquerque Center
02:37PM 35.5694 -103.5892 266° West 431 496 34,000  Level Albuquerque Center
02:38PM 35.5606 -103.7356 266° West 429 494 34,000  Level Albuquerque Center
02:39PM 35.5514 -103.8828 266° West 430 495 34,000  Level Albuquerque Center
02:40PM 35.5428 -104.0292 266° West 430 495 34,000  Level Albuquerque Center
02:41PM 35.5344 -104.1750 266° West 430 495 34,000  Level Albuquerque Center
02:42PM 35.5244 -104.3208 265° West 430 495 34,000  Level Albuquerque Center
02:43PM 35.5122 -104.4914 265° West 430 495 34,000  Level Albuquerque Center
02:44PM 35.5019 -104.6386 265° West 432 497 34,000  Level Albuquerque Center
02:45PM 35.4928 -104.7875 266° West 434 499 34,000  Level Albuquerque Center
02:46PM 35.4814 -104.9375 265° West 438 504 34,000  Level Albuquerque Center
02:47PM 35.4703 -105.0864 265° West 436 502 34,000  Level Albuquerque Center
02:48PM 35.4597 -105.2347 265° West 434 499 34,000  Level Albuquerque Center
02:49PM 35.4494 -105.3836 265° West 434 499 34,000  Level Albuquerque Center
02:50PM 35.4375 -105.5325 264° West 434 499 34,000  Level Albuquerque Center
02:51PM 35.4219 -105.7067 264° West 437 503 34,000  Level Albuquerque Center
02:52PM 35.4122 -105.8569 266° West 438 504 34,000  Level Albuquerque Center
02:53PM 35.4022 -105.9914 265° West 442 509 34,000  Level Albuquerque Center
02:54PM 35.3900 -106.1403 264° West 441 507 34,000  Level Albuquerque Center
02:55PM 35.3758 -106.3203 265° West 443 510 34,000  Level Albuquerque Center
02:56PM 35.3633 -106.4689 264° West 441 507 34,000  Level Albuquerque Center
02:57PM 35.3522 -106.6103 265° West 443 510 34,000  Level Albuquerque Center
02:58PM 35.3389 -106.7772 264° West 442 509 34,000  Level Albuquerque Center
02:59PM 35.3239 -106.9228 263° West 447 514 34,000  Level Albuquerque Center
03:00PM 35.3097 -107.0892 264° West 441 507 34,000  Level Albuquerque Center
03:01PM 35.2961 -107.2425 264° West 449 517 34,000  Level Albuquerque Center
03:02PM 35.2814 -107.3928 263° West 450 518 34,000  Level Albuquerque Center
03:03PM 35.2669 -107.5478 264° West 445 512 34,000  Level Albuquerque Center
03:04PM 35.2514 -107.7172 264° West 447 514 34,000  Level Albuquerque Center
03:05PM 35.2356 -107.8633 262° West 450 518 34,000  Level Albuquerque Center
03:07PM 35.2225 -108.0086 264° West 449 517 34,000  Level Albuquerque Center
03:08PM 35.2064 -108.1769 263° West 446 513 34,000  Level Albuquerque Center
03:09PM 35.1928 -108.3219 263° West 447 514 34,000  Level Albuquerque Center
03:10PM 35.1769 -108.4919 264° West 448 516 34,000  Level Albuquerque Center
03:11PM 35.1617 -108.6392 263° West 452 520 34,000  Level Albuquerque Center
03:12PM 35.1436 -108.8081 263° West 450 518 34,000  Level Albuquerque Center
03:13PM 35.1289 -108.9558 263° West 453 521 34,000  Level Albuquerque Center
03:14PM 35.1136 -109.1003 263° West 449 517 34,000  Level Albuquerque Center
03:15PM 35.0944 -109.2711 262° West 452 520 34,000  Level Albuquerque Center
03:16PM 35.0781 -109.4175 262° West 453 521 34,000  Level Albuquerque Center
03:17PM 35.0594 -109.5847 262° West 447 514 34,000  Level Albuquerque Center
03:18PM 35.0422 -109.7311 262° West 450 518 34,000  Level Albuquerque Center
03:19PM 35.0236 -109.9014 262° West 453 521 34,000  Level Albuquerque Center
03:20PM 35.0072 -110.0478 262° West 454 522 34,000  Level Albuquerque Center
03:21PM 34.9917 -110.1961 263° West 458 527 34,000  Level Albuquerque Center
03:22PM 34.9711 -110.3661 262° West 454 522 34,000  Level Albuquerque Center
03:23PM 34.9517 -110.5106 261° West 451 519 34,000  Level Albuquerque Center
03:24PM 34.9333 -110.6822 263° West 455 524 34,000  Level Albuquerque Center
03:25PM 34.9169 -110.8300 262° West 458 527 34,000  Level Albuquerque Center
03:26PM 34.8964 -111.0011 262° West 457 526 34,000  Level Albuquerque Center
03:27PM 34.8783 -111.1389 261° West 454 522 34,000  Level Albuquerque Center
03:28PM 34.8594 -111.2908 261° West 455 524 34,000  Level Albuquerque Center
03:29PM 34.8378 -111.4411 260° West 454 522 34,000  Level Albuquerque Center
03:30PM 34.8150 -111.6225 261° West 455 524 34,000  Level Albuquerque Center
03:31PM 34.7958 -111.7719 261° West 450 518 34,000  Level Albuquerque Center
03:32PM 34.7778 -111.9203 262° West 446 513 34,000  Level Albuquerque Center
03:33PM 34.7581 -112.0689 261° West 447 514 34,000  Level Albuquerque Center
03:34PM 34.7381 -112.2150 261° West 442 509 34,000  Level Albuquerque Center
03:35PM 34.7175 -112.3633 260° West 442 509 34,000  Level Albuquerque Center
03:36PM 34.6983 -112.5083 261° West 439 505 34,000  Level Albuquerque Center
03:37PM 34.6789 -112.6819 262° West 435 501 34,000  Level Albuquerque Center
03:38PM 34.6617 -112.8272 262° West 435 501 34,000  Level Albuquerque Center
03:39PM 34.6447 -112.9719 262° West 434 499 34,000  Level Albuquerque Center
03:41PM 34.6272 -113.1147 262° West 430 495 34,000  Level Albuquerque Center
03:42PM 34.6097 -113.2564 262° West 427 491 34,000  Level Albuquerque Center
03:43PM 34.5919 -113.3972 261° West 425 489 34,000  Level Albuquerque Center
03:44PM 34.5750 -113.5386 262° West 423 487 34,000  Level Albuquerque Center
03:45PM 34.5494 -113.7050 259° West 425 489 34,000  Level Albuquerque Center
03:46PM 34.5200 -113.8450 256° West 426 490 34,000  Level Albuquerque Center
03:47PM 34.4903 -113.9858 256° West 429 494 34,000  Level Albuquerque Center
03:48PM 34.4689 -114.1281 260° West 428 493 34,000  Level Albuquerque Center
03:48PM 34.4600 -114.1911 260° West 432 497 34,000  Level Los Angeles Center
03:49PM 34.4372 -114.3331 259° West 431 496 34,000  Level Los Angeles Center
03:50PM 34.4133 -114.4747 258° West 432 497 34,000  Level Los Angeles Center
03:51PM 34.3969 -114.6181 262° West 430 495 34,000  Level Los Angeles Center
03:52PM 34.3797 -114.7906 263° West 433 498 34,000  Level Los Angeles Center
03:53PM 34.3650 -114.9361 263° West 434 499 34,000  Level Los Angeles Center
03:54PM 34.3492 -115.0822 263° West 439 505 34,000  Level Los Angeles Center
03:55PM 34.3319 -115.2275 262° West 438 504 34,000  Level Los Angeles Center
03:56PM 34.3161 -115.3747 263° West 441 507 34,000  Level Los Angeles Center
03:57PM 34.2958 -115.5503 262° West 442 509 34,000  Level Los Angeles Center
03:58PM 34.2794 -115.6953 262° West 438 504 34,000  Level Los Angeles Center
04:00PM 34.2628 -115.8383 262° West 435 501 34,000  Level Los Angeles Center
04:01PM 34.2450 -115.9939 262° West 431 496 34,000 -240 Level Los Angeles Center
04:02PM 34.2289 -116.1375 262° West 432 497 33,500 -960 Descending Los Angeles Center
04:03PM 34.2114 -116.2808 262° West 432 497 32,100 -1,560 Descending Los Angeles Center
04:04PM 34.1922 -116.4300 261° West 444 511 30,300 -2,100 Descending Los Angeles Center
04:05PM 34.1744 -116.5744 262° West 439 505 27,800 -2,280 Descending Los Angeles Center
04:06PM 34.1578 -116.7114 262° West 416 479 25,700 -2,280 Descending Los Angeles Center
04:07PM 34.1392 -116.8650 262° West 390 449 23,100 -2,340 Descending Los Angeles Center
04:08PM 34.1167 -116.9833 257° West 374 430 21,200 -2,100 Descending Southern California TRACON
04:09PM 34.1000 -117.1167 261° West 365 420 18,900 -2,040 Descending Southern California TRACON
04:10PM 34.0667 -117.2167 248° West 360 414 17,000 -1,920 Descending Southern California TRACON
04:11PM 34.0333 -117.3333 251° West 344 396 15,100 -1,920 Descending Southern California TRACON
04:12PM 34.0333 -117.4500 270° West 336 387 13,200 -1,920 Descending Southern California TRACON
04:13PM 34.0167 -117.5500 259° West 349 402 11,300 -1,620 Descending Southern California TRACON
04:14PM 34.0167 -117.6667 270° West 331 381 10,000 -1,140 Descending Southern California TRACON
04:15PM 34.0000 -117.7667 259° West 293 337 9,100 -1,260 Descending Southern California TRACON
04:16PM 33.9833 -117.8667 259° West 296 341 7,500 -1,500 Descending Southern California TRACON
04:17PM 33.9833 -117.9667 270° West 282 325 6,100 -1,200 Descending Southern California TRACON
04:18PM 33.9667 -118.0500 256° West 264 304 5,100 -900 Descending Southern California TRACON
04:19PM 33.9667 -118.1333 270° West 245 282 4,400 -840 Descending Southern California TRACON
04:19PM 33.9589 -118.1667 254° West 256 295 4,000 -1,200 Descending Los Angeles Center
04:20PM 33.9519 -118.2342 263° West 223 257 2,700 -1,260 Descending Los Angeles Center